VTK503 VVCR-ROAH
Flight info
| Callsign | VTK503 |
|---|---|
| Flight time | 3h 27m |
| Altitude | 41000 |
| Route | NITOM1A NITOM Q15 MESOX/N0484F410 L628 ARESI/N0485F400 L625 MEVIN/N0484F410 B462 KAZIK Y62 MJC Y57 VELNO |
| Aircraft | A359/H-SDE2E3GHIJ3J4J5LM1ORWXY/LB1D1 |
Departure
| Time | 2026-04-18 07:04 |
|---|---|
| Airport | Cam Ranh International Airport / Cam Ranh Air Base (VVCR) |
Arrival
| Time | 2026-04-18 10:31 |
|---|---|
| Airport | Naha International Airport (ROAH) |
| Time | Latitude | Longitude | Altitude | Speed | Heading |
|---|---|---|---|---|---|
| 2026-04-18 06:41 | 12.01082 | 109.21865 | 60 ft | 0 kts | 109° |
| 2026-04-18 06:57 | 12.01058 | 109.21917 | 51 ft | 10 kts | 135° |
| 2026-04-18 06:57 | 12.00966 | 109.21917 | 51 ft | 18 kts | 195° |
| 2026-04-18 06:58 | 12.00822 | 109.21870 | 55 ft | 24 kts | 199° |
| 2026-04-18 06:58 | 12.00655 | 109.21812 | 52 ft | 27 kts | 197° |
| 2026-04-18 06:58 | 12.00471 | 109.21751 | 50 ft | 29 kts | 198° |
| 2026-04-18 06:58 | 12.00288 | 109.21683 | 52 ft | 23 kts | 200° |
| 2026-04-18 06:59 | 12.00168 | 109.21639 | 51 ft | 12 kts | 198° |
| 2026-04-18 06:59 | 12.00151 | 109.21634 | 51 ft | 0 kts | 192° |
| 2026-04-18 06:59 | 12.00139 | 109.21637 | 51 ft | 10 kts | 163° |
| 2026-04-18 07:00 | 12.00080 | 109.21746 | 49 ft | 19 kts | 109° |
| 2026-04-18 07:00 | 12.00023 | 109.21767 | 50 ft | 11 kts | 188° |
| 2026-04-18 07:00 | 11.99915 | 109.21731 | 49 ft | 20 kts | 200° |
| 2026-04-18 07:00 | 11.99771 | 109.21682 | 47 ft | 23 kts | 198° |
| 2026-04-18 07:01 | 11.99611 | 109.21627 | 46 ft | 26 kts | 199° |
| 2026-04-18 07:01 | 11.99435 | 109.21563 | 44 ft | 28 kts | 199° |
| 2026-04-18 07:01 | 11.99242 | 109.21499 | 42 ft | 30 kts | 198° |
| 2026-04-18 07:01 | 11.99037 | 109.21424 | 40 ft | 32 kts | 201° |
| 2026-04-18 07:02 | 11.98830 | 109.21348 | 38 ft | 29 kts | 199° |
| 2026-04-18 07:02 | 11.98677 | 109.21295 | 37 ft | 19 kts | 198° |
| 2026-04-18 07:02 | 11.98592 | 109.21293 | 36 ft | 5 kts | 122° |
| 2026-04-18 07:02 | 11.98573 | 109.21334 | 36 ft | 8 kts | 113° |
| 2026-04-18 07:03 | 11.98551 | 109.21391 | 36 ft | 10 kts | 111° |
| 2026-04-18 07:03 | 11.98547 | 109.21460 | 37 ft | 10 kts | 69° |
| 2026-04-18 07:03 | 11.98600 | 109.21505 | 37 ft | 11 kts | 22° |
| 2026-04-18 07:03 | 11.98683 | 109.21537 | 38 ft | 20 kts | 17° |
| 2026-04-18 07:04 | 11.99065 | 109.21667 | 40 ft | 95 kts | 19° |
| 2026-04-18 07:04 | 11.99903 | 109.21958 | 50 ft | 157 kts | 18° |
| 2026-04-18 07:04 | 12.01028 | 109.22321 | 642 ft | 168 kts | 21° |
| 2026-04-18 07:04 | 12.02118 | 109.22684 | 1524 ft | 161 kts | 22° |
| 2026-04-18 07:05 | 12.03139 | 109.23021 | 2118 ft | 152 kts | 22° |
| 2026-04-18 07:05 | 12.04165 | 109.23381 | 2377 ft | 162 kts | 23° |
| 2026-04-18 07:05 | 12.05269 | 109.23784 | 2570 ft | 176 kts | 22° |
| 2026-04-18 07:05 | 12.06469 | 109.24217 | 2737 ft | 190 kts | 21° |
| 2026-04-18 07:06 | 12.07764 | 109.24676 | 2873 ft | 206 kts | 21° |
| 2026-04-18 07:06 | 12.09181 | 109.25178 | 3036 ft | 225 kts | 20° |
| 2026-04-18 07:06 | 12.10732 | 109.25725 | 3301 ft | 246 kts | 20° |
| 2026-04-18 07:06 | 12.12400 | 109.26314 | 3699 ft | 260 kts | 19° |
| 2026-04-18 07:07 | 12.14128 | 109.26922 | 4298 ft | 264 kts | 18° |
| 2026-04-18 07:07 | 12.15855 | 109.27602 | 4934 ft | 268 kts | 25° |
| 2026-04-18 07:07 | 12.17314 | 109.28800 | 5502 ft | 275 kts | 51° |
| 2026-04-18 07:07 | 12.18072 | 109.30595 | 6162 ft | 280 kts | 79° |
| 2026-04-18 07:08 | 12.17916 | 109.32577 | 6758 ft | 285 kts | 105° |
| 2026-04-18 07:08 | 12.17214 | 109.34476 | 7386 ft | 286 kts | 111° |
| 2026-04-18 07:08 | 12.16423 | 109.36345 | 8009 ft | 287 kts | 111° |
| 2026-04-18 07:08 | 12.15632 | 109.38221 | 8621 ft | 288 kts | 111° |
| 2026-04-18 07:09 | 12.14849 | 109.40108 | 9236 ft | 289 kts | 110° |
| 2026-04-18 07:09 | 12.14078 | 109.42013 | 9820 ft | 291 kts | 109° |
| 2026-04-18 07:09 | 12.13470 | 109.43999 | 10248 ft | 297 kts | 101° |
| 2026-04-18 07:09 | 12.13271 | 109.46137 | 10473 ft | 309 kts | 87° |
| 2026-04-18 07:10 | 12.13596 | 109.48346 | 10678 ft | 321 kts | 73° |
| 2026-04-18 07:10 | 12.14445 | 109.50493 | 10883 ft | 332 kts | 63° |
| 2026-04-18 07:10 | 12.15556 | 109.52611 | 11097 ft | 343 kts | 60° |
| 2026-04-18 07:10 | 12.16730 | 109.54768 | 11345 ft | 352 kts | 60° |
| 2026-04-18 07:11 | 12.17927 | 109.56974 | 11706 ft | 356 kts | 60° |
| 2026-04-18 07:11 | 12.19125 | 109.59206 | 12084 ft | 360 kts | 60° |
| 2026-04-18 07:11 | 12.20326 | 109.61460 | 12464 ft | 363 kts | 60° |
| 2026-04-18 07:11 | 12.21539 | 109.63744 | 12839 ft | 367 kts | 61° |
| 2026-04-18 07:12 | 12.22755 | 109.66040 | 13203 ft | 370 kts | 61° |
| 2026-04-18 07:12 | 12.23984 | 109.68368 | 13573 ft | 373 kts | 61° |
| 2026-04-18 07:12 | 12.25222 | 109.70713 | 13924 ft | 376 kts | 61° |
| 2026-04-18 07:12 | 12.26466 | 109.73073 | 14262 ft | 379 kts | 61° |
| 2026-04-18 07:13 | 12.27721 | 109.75452 | 14605 ft | 381 kts | 61° |
| 2026-04-18 07:13 | 12.28982 | 109.77844 | 14955 ft | 383 kts | 61° |
| 2026-04-18 07:13 | 12.30250 | 109.80249 | 15303 ft | 386 kts | 61° |
| 2026-04-18 07:13 | 12.31527 | 109.82670 | 15651 ft | 388 kts | 61° |
| 2026-04-18 07:14 | 12.32810 | 109.85108 | 16002 ft | 391 kts | 61° |
| 2026-04-18 07:14 | 12.34104 | 109.87564 | 16342 ft | 393 kts | 61° |
| 2026-04-18 07:14 | 12.35404 | 109.90034 | 16688 ft | 396 kts | 61° |
| 2026-04-18 07:14 | 12.36713 | 109.92521 | 17034 ft | 398 kts | 61° |
| 2026-04-18 07:15 | 12.38015 | 109.94993 | 17356 ft | 401 kts | 61° |
| 2026-04-18 07:15 | 12.39360 | 109.97550 | 17689 ft | 404 kts | 62° |
| 2026-04-18 07:15 | 12.40692 | 110.00083 | 18032 ft | 406 kts | 62° |
| 2026-04-18 07:15 | 12.42036 | 110.02639 | 18334 ft | 409 kts | 62° |
| 2026-04-18 07:16 | 12.43365 | 110.05168 | 18646 ft | 410 kts | 62° |
| 2026-04-18 07:16 | 12.44720 | 110.07747 | 18944 ft | 412 kts | 61° |
| 2026-04-18 07:16 | 12.46079 | 110.10334 | 19235 ft | 414 kts | 61° |
| 2026-04-18 07:16 | 12.47446 | 110.12937 | 19517 ft | 416 kts | 61° |
| 2026-04-18 07:17 | 12.48820 | 110.15554 | 19817 ft | 418 kts | 61° |
| 2026-04-18 07:17 | 12.50217 | 110.18215 | 20099 ft | 421 kts | 61° |
| 2026-04-18 07:17 | 12.51604 | 110.20856 | 20393 ft | 422 kts | 61° |
| 2026-04-18 07:17 | 12.52997 | 110.23511 | 20669 ft | 424 kts | 61° |
| 2026-04-18 07:18 | 12.54400 | 110.26185 | 20947 ft | 427 kts | 61° |
| 2026-04-18 07:18 | 12.55785 | 110.28827 | 21229 ft | 428 kts | 61° |
| 2026-04-18 07:18 | 12.57197 | 110.31521 | 21515 ft | 430 kts | 61° |
| 2026-04-18 07:18 | 12.58613 | 110.34221 | 21780 ft | 432 kts | 61° |
| 2026-04-18 07:19 | 12.60034 | 110.36934 | 22078 ft | 434 kts | 61° |
| 2026-04-18 07:19 | 12.61462 | 110.39659 | 22336 ft | 435 kts | 61° |
| 2026-04-18 07:19 | 12.62898 | 110.42402 | 22609 ft | 437 kts | 61° |
| 2026-04-18 07:19 | 12.64334 | 110.45147 | 22874 ft | 439 kts | 61° |
| 2026-04-18 07:20 | 12.65780 | 110.47912 | 23130 ft | 441 kts | 61° |
| 2026-04-18 07:20 | 12.67229 | 110.50681 | 23376 ft | 443 kts | 61° |
| 2026-04-18 07:20 | 12.68686 | 110.53470 | 23606 ft | 444 kts | 61° |
| 2026-04-18 07:20 | 12.70145 | 110.56260 | 23819 ft | 446 kts | 61° |
| 2026-04-18 07:21 | 12.71613 | 110.59071 | 24027 ft | 448 kts | 61° |
| 2026-04-18 07:21 | 12.73083 | 110.61885 | 24251 ft | 449 kts | 61° |
| 2026-04-18 07:21 | 12.74557 | 110.64709 | 24453 ft | 451 kts | 61° |
| 2026-04-18 07:21 | 12.76033 | 110.67550 | 24673 ft | 452 kts | 61° |
| 2026-04-18 07:22 | 12.77515 | 110.70391 | 24888 ft | 454 kts | 61° |
| 2026-04-18 07:22 | 12.79009 | 110.73251 | 25101 ft | 455 kts | 61° |
| 2026-04-18 07:22 | 12.80501 | 110.76108 | 25313 ft | 457 kts | 61° |
| 2026-04-18 07:22 | 12.82004 | 110.78988 | 25533 ft | 458 kts | 61° |
| 2026-04-18 07:23 | 12.83509 | 110.81872 | 25757 ft | 460 kts | 61° |
| 2026-04-18 07:23 | 12.85019 | 110.84769 | 25971 ft | 461 kts | 61° |
| 2026-04-18 07:23 | 12.86530 | 110.87671 | 26185 ft | 463 kts | 61° |
| 2026-04-18 07:23 | 12.88048 | 110.90587 | 26417 ft | 465 kts | 61° |
| 2026-04-18 07:24 | 12.89573 | 110.93516 | 26659 ft | 466 kts | 61° |
| 2026-04-18 07:24 | 12.90584 | 110.95459 | 26797 ft | 467 kts | 61° |
| 2026-04-18 07:24 | 12.92115 | 110.98402 | 27022 ft | 469 kts | 61° |
| 2026-04-18 07:24 | 12.94173 | 111.02360 | 27326 ft | 471 kts | 61° |
| 2026-04-18 07:25 | 12.95716 | 111.05328 | 27559 ft | 473 kts | 61° |
| 2026-04-18 07:25 | 12.96743 | 111.07305 | 27710 ft | 474 kts | 61° |
| 2026-04-18 07:25 | 12.98294 | 111.10291 | 27942 ft | 476 kts | 61° |
| 2026-04-18 07:25 | 12.99855 | 111.13297 | 28175 ft | 478 kts | 61° |
| 2026-04-18 07:26 | 13.01417 | 111.16306 | 28419 ft | 480 kts | 61° |
| 2026-04-18 07:26 | 13.02987 | 111.19332 | 28646 ft | 481 kts | 61° |
| 2026-04-18 07:26 | 13.04564 | 111.22371 | 28876 ft | 483 kts | 61° |
| 2026-04-18 07:26 | 13.06145 | 111.25421 | 29123 ft | 485 kts | 61° |
| 2026-04-18 07:27 | 13.07728 | 111.28475 | 29335 ft | 487 kts | 61° |
| 2026-04-18 07:27 | 13.09323 | 111.31552 | 29588 ft | 489 kts | 61° |
| 2026-04-18 07:27 | 13.10918 | 111.34632 | 29848 ft | 491 kts | 61° |
| 2026-04-18 07:27 | 13.12523 | 111.37731 | 30045 ft | 493 kts | 61° |
| 2026-04-18 07:28 | 13.14135 | 111.40844 | 30254 ft | 495 kts | 61° |
| 2026-04-18 07:28 | 13.15748 | 111.43963 | 30462 ft | 496 kts | 61° |
| 2026-04-18 07:28 | 13.17369 | 111.47097 | 30674 ft | 498 kts | 61° |
| 2026-04-18 07:28 | 13.18998 | 111.50247 | 30906 ft | 500 kts | 61° |
| 2026-04-18 07:29 | 13.20629 | 111.53402 | 31122 ft | 502 kts | 61° |
| 2026-04-18 07:29 | 13.22266 | 111.56570 | 31343 ft | 503 kts | 62° |
| 2026-04-18 07:29 | 13.23910 | 111.59755 | 31566 ft | 505 kts | 62° |
| 2026-04-18 07:29 | 13.25556 | 111.62943 | 31779 ft | 507 kts | 62° |
| 2026-04-18 07:30 | 13.27209 | 111.66146 | 31976 ft | 509 kts | 62° |
| 2026-04-18 07:30 | 13.28869 | 111.69362 | 32173 ft | 510 kts | 62° |
| 2026-04-18 07:30 | 13.30531 | 111.72585 | 32351 ft | 512 kts | 62° |
| 2026-04-18 07:30 | 13.32201 | 111.75824 | 32561 ft | 514 kts | 62° |
| 2026-04-18 07:31 | 13.33873 | 111.79069 | 32737 ft | 515 kts | 62° |
| 2026-04-18 07:31 | 13.35552 | 111.82329 | 32925 ft | 517 kts | 62° |
| 2026-04-18 07:31 | 13.37232 | 111.85592 | 33107 ft | 518 kts | 62° |
| 2026-04-18 07:31 | 13.38921 | 111.88874 | 33295 ft | 520 kts | 62° |
| 2026-04-18 07:32 | 13.40614 | 111.92164 | 33478 ft | 521 kts | 62° |
| 2026-04-18 07:32 | 13.42306 | 111.95454 | 33721 ft | 521 kts | 62° |
| 2026-04-18 07:32 | 13.43976 | 111.98703 | 33989 ft | 521 kts | 62° |
| 2026-04-18 07:32 | 13.45665 | 112.01989 | 34237 ft | 520 kts | 62° |
| 2026-04-18 07:33 | 13.47349 | 112.05269 | 34495 ft | 520 kts | 62° |
| 2026-04-18 07:33 | 13.49037 | 112.08555 | 34753 ft | 519 kts | 62° |
| 2026-04-18 07:33 | 13.50723 | 112.11840 | 35021 ft | 519 kts | 62° |
| 2026-04-18 07:33 | 13.52404 | 112.15117 | 35292 ft | 519 kts | 62° |
| 2026-04-18 07:34 | 13.54085 | 112.18394 | 35585 ft | 518 kts | 62° |
| 2026-04-18 07:34 | 13.55764 | 112.21668 | 35877 ft | 517 kts | 62° |
| 2026-04-18 07:34 | 13.57438 | 112.24934 | 36178 ft | 517 kts | 62° |
| 2026-04-18 07:34 | 13.59111 | 112.28201 | 36458 ft | 517 kts | 62° |
| 2026-04-18 07:35 | 13.60784 | 112.31468 | 36746 ft | 516 kts | 62° |
| 2026-04-18 07:35 | 13.62454 | 112.34730 | 37031 ft | 516 kts | 62° |
| 2026-04-18 07:35 | 13.64126 | 112.37997 | 37325 ft | 515 kts | 62° |
| 2026-04-18 07:35 | 13.65792 | 112.41255 | 37639 ft | 515 kts | 62° |
| 2026-04-18 07:36 | 13.67457 | 112.44512 | 37935 ft | 514 kts | 62° |
| 2026-04-18 07:36 | 13.69120 | 112.47765 | 38214 ft | 514 kts | 62° |
| 2026-04-18 07:36 | 13.70781 | 112.51017 | 38508 ft | 513 kts | 62° |
| 2026-04-18 07:36 | 13.72441 | 112.54267 | 38750 ft | 513 kts | 62° |
| 2026-04-18 07:37 | 13.74094 | 112.57507 | 38998 ft | 512 kts | 63° |
| 2026-04-18 07:37 | 13.75748 | 112.60748 | 39247 ft | 511 kts | 63° |
| 2026-04-18 07:37 | 13.77399 | 112.63985 | 39487 ft | 511 kts | 63° |
| 2026-04-18 07:37 | 13.79047 | 112.67217 | 39727 ft | 510 kts | 63° |
| 2026-04-18 07:38 | 13.80694 | 112.70448 | 39972 ft | 509 kts | 63° |
| 2026-04-18 07:38 | 13.82335 | 112.73670 | 40191 ft | 508 kts | 63° |
| 2026-04-18 07:38 | 13.83974 | 112.76887 | 40416 ft | 508 kts | 63° |
| 2026-04-18 07:38 | 13.85612 | 112.80105 | 40657 ft | 507 kts | 63° |
| 2026-04-18 07:39 | 13.87245 | 112.83314 | 40845 ft | 507 kts | 63° |
| 2026-04-18 07:39 | 13.88877 | 112.86524 | 40895 ft | 506 kts | 63° |
| 2026-04-18 07:39 | 13.92137 | 112.92938 | 40899 ft | 505 kts | 63° |
| 2026-04-18 07:40 | 13.95387 | 112.99352 | 40898 ft | 505 kts | 64° |
| 2026-04-18 07:40 | 13.97640 | 113.06109 | 40897 ft | 502 kts | 81° |
| 2026-04-18 07:41 | 13.98119 | 113.13245 | 40900 ft | 499 kts | 90° |
| 2026-04-18 07:41 | 13.98111 | 113.20392 | 40900 ft | 499 kts | 92° |
| 2026-04-18 07:42 | 13.98034 | 113.27534 | 40901 ft | 499 kts | 92° |
| 2026-04-18 07:42 | 13.97982 | 113.34673 | 40901 ft | 498 kts | 91° |
| 2026-04-18 07:43 | 13.97953 | 113.41803 | 40896 ft | 498 kts | 91° |
| 2026-04-18 07:43 | 13.97931 | 113.48938 | 40897 ft | 498 kts | 91° |
| 2026-04-18 07:44 | 13.97905 | 113.56051 | 40897 ft | 497 kts | 91° |
| 2026-04-18 07:44 | 13.97877 | 113.63167 | 40899 ft | 497 kts | 91° |
| 2026-04-18 07:45 | 13.97845 | 113.70279 | 40897 ft | 496 kts | 91° |
| 2026-04-18 07:45 | 13.97812 | 113.77379 | 40897 ft | 496 kts | 91° |
| 2026-04-18 07:46 | 13.97776 | 113.84478 | 40898 ft | 495 kts | 91° |
| 2026-04-18 07:46 | 13.97739 | 113.91568 | 40895 ft | 495 kts | 91° |
| 2026-04-18 07:47 | 13.97700 | 113.98654 | 40895 ft | 495 kts | 91° |
| 2026-04-18 07:47 | 13.97658 | 114.05734 | 40893 ft | 494 kts | 91° |
| 2026-04-18 07:48 | 13.97614 | 114.12808 | 40897 ft | 494 kts | 91° |
| 2026-04-18 07:48 | 13.97569 | 114.19885 | 40896 ft | 494 kts | 91° |
| 2026-04-18 07:49 | 13.97521 | 114.26954 | 40895 ft | 494 kts | 91° |
| 2026-04-18 07:49 | 13.97472 | 114.34027 | 40893 ft | 494 kts | 91° |
| 2026-04-18 07:50 | 13.97950 | 114.41029 | 40893 ft | 496 kts | 80° |
| 2026-04-18 07:50 | 14.00388 | 114.47660 | 40894 ft | 499 kts | 60° |
| 2026-04-18 07:51 | 14.04699 | 114.53262 | 40893 ft | 500 kts | 49° |
| 2026-04-18 07:51 | 14.09490 | 114.58472 | 40896 ft | 501 kts | 47° |
| 2026-04-18 07:52 | 14.14328 | 114.63635 | 40894 ft | 501 kts | 47° |
| 2026-04-18 07:52 | 14.19135 | 114.68825 | 40895 ft | 501 kts | 47° |
| 2026-04-18 07:53 | 14.23928 | 114.74049 | 40897 ft | 501 kts | 47° |
| 2026-04-18 07:53 | 14.28713 | 114.79279 | 40894 ft | 501 kts | 47° |
| 2026-04-18 07:54 | 14.33496 | 114.84511 | 40896 ft | 501 kts | 47° |
| 2026-04-18 07:54 | 14.38281 | 114.89745 | 40897 ft | 501 kts | 47° |
| 2026-04-18 07:55 | 14.43060 | 114.94975 | 40896 ft | 501 kts | 47° |
| 2026-04-18 07:55 | 14.47845 | 115.00216 | 40897 ft | 501 kts | 47° |
| 2026-04-18 07:56 | 14.52623 | 115.05452 | 40899 ft | 501 kts | 47° |
| 2026-04-18 07:56 | 14.57373 | 115.10661 | 40896 ft | 501 kts | 47° |
| 2026-04-18 07:57 | 14.62185 | 115.15941 | 40898 ft | 501 kts | 47° |
| 2026-04-18 07:57 | 14.66930 | 115.21152 | 40898 ft | 501 kts | 47° |
| 2026-04-18 07:58 | 14.74096 | 115.29028 | 40900 ft | 501 kts | 47° |
| 2026-04-18 07:59 | 14.78872 | 115.34281 | 40901 ft | 501 kts | 47° |
| 2026-04-18 07:59 | 14.83647 | 115.39536 | 40898 ft | 501 kts | 47° |
| 2026-04-18 08:00 | 14.88415 | 115.44789 | 40899 ft | 502 kts | 48° |
| 2026-04-18 08:00 | 14.93194 | 115.50057 | 40897 ft | 502 kts | 47° |
| 2026-04-18 08:01 | 14.97966 | 115.55321 | 40898 ft | 502 kts | 47° |
| 2026-04-18 08:01 | 15.02740 | 115.60590 | 40900 ft | 502 kts | 47° |
| 2026-04-18 08:02 | 15.07514 | 115.65863 | 40900 ft | 502 kts | 47° |
| 2026-04-18 08:02 | 15.12291 | 115.71144 | 40899 ft | 502 kts | 47° |
| 2026-04-18 08:03 | 15.17063 | 115.76422 | 40899 ft | 502 kts | 47° |
| 2026-04-18 08:03 | 15.21830 | 115.81699 | 40898 ft | 502 kts | 47° |
| 2026-04-18 08:04 | 15.26600 | 115.86983 | 40899 ft | 502 kts | 47° |
| 2026-04-18 08:04 | 15.31368 | 115.92268 | 40897 ft | 502 kts | 47° |
| 2026-04-18 08:05 | 15.36131 | 115.97553 | 40899 ft | 502 kts | 47° |
| 2026-04-18 08:05 | 15.40902 | 116.02849 | 40899 ft | 502 kts | 47° |
| 2026-04-18 08:06 | 15.45667 | 116.08142 | 40899 ft | 502 kts | 47° |
| 2026-04-18 08:06 | 15.50434 | 116.13442 | 40901 ft | 502 kts | 47° |
| 2026-04-18 08:07 | 15.55200 | 116.18744 | 40903 ft | 502 kts | 47° |
| 2026-04-18 08:07 | 15.59966 | 116.24050 | 40904 ft | 503 kts | 47° |
| 2026-04-18 08:08 | 15.64730 | 116.29358 | 40903 ft | 503 kts | 47° |
| 2026-04-18 08:08 | 15.69498 | 116.34674 | 40902 ft | 503 kts | 47° |
| 2026-04-18 08:09 | 15.74261 | 116.39989 | 40904 ft | 503 kts | 47° |
| 2026-04-18 08:09 | 15.79024 | 116.45307 | 40905 ft | 503 kts | 47° |
| 2026-04-18 08:10 | 15.83786 | 116.50628 | 40904 ft | 503 kts | 47° |
| 2026-04-18 08:10 | 15.88544 | 116.55949 | 40905 ft | 503 kts | 47° |
| 2026-04-18 08:11 | 15.93308 | 116.61281 | 40906 ft | 503 kts | 47° |
| 2026-04-18 08:11 | 15.98065 | 116.66609 | 40905 ft | 503 kts | 47° |
| 2026-04-18 08:12 | 16.02026 | 116.71047 | 40907 ft | 503 kts | 48° |
| 2026-04-18 08:12 | 16.06787 | 116.76387 | 40907 ft | 503 kts | 48° |
| 2026-04-18 08:13 | 16.11546 | 116.81727 | 40907 ft | 503 kts | 48° |
| 2026-04-18 08:13 | 16.17072 | 116.87935 | 40905 ft | 503 kts | 48° |
| 2026-04-18 08:14 | 16.21052 | 116.92410 | 40906 ft | 503 kts | 48° |
| 2026-04-18 08:14 | 16.25809 | 116.97761 | 40906 ft | 503 kts | 48° |
| 2026-04-18 08:15 | 16.30559 | 117.03108 | 40907 ft | 503 kts | 48° |
| 2026-04-18 08:15 | 16.35312 | 117.08463 | 40907 ft | 503 kts | 48° |
| 2026-04-18 08:16 | 16.40063 | 117.13820 | 40907 ft | 504 kts | 48° |
| 2026-04-18 08:16 | 16.44813 | 117.19180 | 40906 ft | 503 kts | 48° |
| 2026-04-18 08:17 | 16.49530 | 117.24511 | 40906 ft | 504 kts | 48° |
| 2026-04-18 08:17 | 16.54279 | 117.29878 | 40907 ft | 504 kts | 48° |
| 2026-04-18 08:18 | 16.59027 | 117.35246 | 40908 ft | 504 kts | 48° |
| 2026-04-18 08:18 | 16.63774 | 117.40619 | 40903 ft | 504 kts | 48° |
| 2026-04-18 08:19 | 16.68517 | 117.45993 | 40907 ft | 504 kts | 48° |
| 2026-04-18 08:19 | 16.73260 | 117.51371 | 40909 ft | 504 kts | 48° |
| 2026-04-18 08:20 | 16.78009 | 117.56759 | 40909 ft | 504 kts | 48° |
| 2026-04-18 08:20 | 16.82756 | 117.62151 | 40909 ft | 504 kts | 48° |
| 2026-04-18 08:21 | 16.87499 | 117.67541 | 40909 ft | 504 kts | 48° |
| 2026-04-18 08:21 | 16.92244 | 117.72939 | 40908 ft | 504 kts | 48° |
| 2026-04-18 08:22 | 16.96987 | 117.78338 | 40907 ft | 505 kts | 48° |
| 2026-04-18 08:22 | 17.01733 | 117.83745 | 40909 ft | 505 kts | 48° |
| 2026-04-18 08:23 | 17.06475 | 117.89151 | 40911 ft | 505 kts | 48° |
| 2026-04-18 08:23 | 17.11216 | 117.94562 | 40907 ft | 505 kts | 48° |
| 2026-04-18 08:24 | 17.15960 | 117.99980 | 40906 ft | 505 kts | 48° |
| 2026-04-18 08:24 | 17.20669 | 118.05362 | 40910 ft | 505 kts | 48° |
| 2026-04-18 08:25 | 17.25411 | 118.10787 | 40910 ft | 505 kts | 48° |
| 2026-04-18 08:25 | 17.30149 | 118.16211 | 40910 ft | 505 kts | 48° |
| 2026-04-18 08:26 | 17.34892 | 118.21645 | 40904 ft | 505 kts | 48° |
| 2026-04-18 08:26 | 17.39082 | 118.27499 | 40900 ft | 504 kts | 57° |
| 2026-04-18 08:27 | 17.43751 | 118.32986 | 40909 ft | 506 kts | 44° |
| 2026-04-18 08:27 | 17.48845 | 118.38071 | 40908 ft | 506 kts | 45° |
| 2026-04-18 08:28 | 17.53799 | 118.43318 | 40905 ft | 506 kts | 46° |
| 2026-04-18 08:28 | 17.58615 | 118.48699 | 40906 ft | 506 kts | 47° |
| 2026-04-18 08:29 | 17.63358 | 118.54150 | 40905 ft | 506 kts | 47° |
| 2026-04-18 08:29 | 17.68089 | 118.59623 | 40910 ft | 506 kts | 47° |
| 2026-04-18 08:30 | 17.72825 | 118.65097 | 40910 ft | 507 kts | 47° |
| 2026-04-18 08:30 | 17.77563 | 118.70569 | 40908 ft | 507 kts | 47° |
| 2026-04-18 08:31 | 17.82299 | 118.76041 | 40903 ft | 507 kts | 47° |
| 2026-04-18 08:31 | 17.87036 | 118.81518 | 40905 ft | 507 kts | 47° |
| 2026-04-18 08:32 | 17.91776 | 118.87004 | 40907 ft | 507 kts | 47° |
| 2026-04-18 08:32 | 17.96509 | 118.92488 | 40902 ft | 507 kts | 47° |
| 2026-04-18 08:33 | 18.01246 | 118.97980 | 40905 ft | 507 kts | 47° |
| 2026-04-18 08:33 | 18.05986 | 119.03479 | 40905 ft | 507 kts | 47° |
| 2026-04-18 08:34 | 18.10720 | 119.08978 | 40902 ft | 507 kts | 47° |
| 2026-04-18 08:34 | 18.15422 | 119.14445 | 40906 ft | 508 kts | 47° |
| 2026-04-18 08:35 | 18.20156 | 119.19953 | 40904 ft | 508 kts | 47° |
| 2026-04-18 08:35 | 18.24889 | 119.25466 | 40904 ft | 508 kts | 48° |
| 2026-04-18 08:36 | 18.29627 | 119.30988 | 40904 ft | 508 kts | 48° |
| 2026-04-18 08:36 | 18.34356 | 119.36505 | 40901 ft | 508 kts | 48° |
| 2026-04-18 08:37 | 18.39092 | 119.42036 | 40901 ft | 508 kts | 48° |
| 2026-04-18 08:37 | 18.43827 | 119.47569 | 40901 ft | 508 kts | 48° |
| 2026-04-18 08:38 | 18.48558 | 119.53104 | 40901 ft | 509 kts | 48° |
| 2026-04-18 08:38 | 18.53288 | 119.58641 | 40900 ft | 509 kts | 48° |
| 2026-04-18 08:39 | 18.58027 | 119.64194 | 40901 ft | 509 kts | 48° |
| 2026-04-18 08:39 | 18.62763 | 119.69746 | 40898 ft | 509 kts | 48° |
| 2026-04-18 08:40 | 18.67495 | 119.75301 | 40898 ft | 509 kts | 48° |
| 2026-04-18 08:40 | 18.72226 | 119.80861 | 40898 ft | 509 kts | 48° |
| 2026-04-18 08:41 | 18.76957 | 119.86427 | 40898 ft | 510 kts | 48° |
| 2026-04-18 08:41 | 18.81694 | 119.92003 | 40898 ft | 510 kts | 48° |
| 2026-04-18 08:42 | 18.86423 | 119.97575 | 40898 ft | 510 kts | 48° |
| 2026-04-18 08:42 | 18.91157 | 120.03158 | 40895 ft | 510 kts | 48° |
| 2026-04-18 08:43 | 18.95894 | 120.08750 | 40896 ft | 510 kts | 48° |
| 2026-04-18 08:43 | 19.00626 | 120.14341 | 40898 ft | 510 kts | 48° |
| 2026-04-18 08:44 | 19.05357 | 120.19935 | 40896 ft | 511 kts | 48° |
| 2026-04-18 08:44 | 19.10088 | 120.25535 | 40897 ft | 511 kts | 48° |
| 2026-04-18 08:45 | 19.14819 | 120.31141 | 40898 ft | 511 kts | 48° |
| 2026-04-18 08:45 | 19.19553 | 120.36755 | 40900 ft | 511 kts | 48° |
| 2026-04-18 08:46 | 19.24289 | 120.42376 | 40897 ft | 511 kts | 48° |
| 2026-04-18 08:46 | 19.29018 | 120.47994 | 40898 ft | 512 kts | 48° |
| 2026-04-18 08:47 | 19.33750 | 120.53623 | 40897 ft | 512 kts | 48° |
| 2026-04-18 08:47 | 19.38486 | 120.59260 | 40897 ft | 512 kts | 48° |
| 2026-04-18 08:48 | 19.43184 | 120.64864 | 40899 ft | 512 kts | 48° |
| 2026-04-18 08:48 | 19.47917 | 120.70511 | 40897 ft | 513 kts | 48° |
| 2026-04-18 08:49 | 19.52656 | 120.76163 | 40899 ft | 513 kts | 48° |
| 2026-04-18 08:49 | 19.57390 | 120.81817 | 40895 ft | 513 kts | 48° |
| 2026-04-18 08:50 | 19.62129 | 120.87485 | 40895 ft | 513 kts | 48° |
| 2026-04-18 08:50 | 19.66862 | 120.93152 | 40896 ft | 513 kts | 48° |
| 2026-04-18 08:51 | 19.71598 | 120.98829 | 40897 ft | 514 kts | 48° |
| 2026-04-18 08:51 | 19.76333 | 121.04508 | 40896 ft | 514 kts | 48° |
| 2026-04-18 08:52 | 19.81068 | 121.10194 | 40894 ft | 514 kts | 48° |
| 2026-04-18 08:52 | 19.85807 | 121.15890 | 40897 ft | 514 kts | 48° |
| 2026-04-18 08:53 | 19.90541 | 121.21586 | 40899 ft | 515 kts | 48° |
| 2026-04-18 08:53 | 19.95279 | 121.27292 | 40896 ft | 515 kts | 48° |
| 2026-04-18 08:54 | 20.00019 | 121.33006 | 40895 ft | 515 kts | 48° |
| 2026-04-18 08:54 | 20.04757 | 121.38725 | 40900 ft | 515 kts | 48° |
| 2026-04-18 08:55 | 20.09496 | 121.44449 | 40898 ft | 515 kts | 48° |
| 2026-04-18 08:55 | 20.14202 | 121.50138 | 40901 ft | 516 kts | 48° |
| 2026-04-18 08:56 | 20.18933 | 121.55865 | 40897 ft | 516 kts | 48° |
| 2026-04-18 08:56 | 20.23670 | 121.61604 | 40901 ft | 516 kts | 48° |
| 2026-04-18 08:57 | 20.30777 | 121.70224 | 40893 ft | 516 kts | 49° |
| 2026-04-18 08:57 | 20.35518 | 121.75983 | 40894 ft | 517 kts | 49° |
| 2026-04-18 08:58 | 20.40255 | 121.81743 | 40895 ft | 517 kts | 49° |
| 2026-04-18 08:58 | 20.44999 | 121.87517 | 40895 ft | 518 kts | 49° |
| 2026-04-18 08:59 | 20.49742 | 121.93294 | 40894 ft | 518 kts | 49° |
| 2026-04-18 08:59 | 20.54486 | 121.99080 | 40897 ft | 518 kts | 49° |
| 2026-04-18 09:00 | 20.59229 | 122.04871 | 40897 ft | 518 kts | 49° |
| 2026-04-18 09:00 | 20.63169 | 122.09685 | 40888 ft | 518 kts | 49° |
| 2026-04-18 09:01 | 20.67909 | 122.15483 | 40888 ft | 518 kts | 49° |
| 2026-04-18 09:01 | 20.72653 | 122.21291 | 40894 ft | 519 kts | 49° |
| 2026-04-18 09:02 | 20.77394 | 122.27101 | 40899 ft | 519 kts | 49° |
| 2026-04-18 09:02 | 20.82135 | 122.32919 | 40894 ft | 519 kts | 49° |
| 2026-04-18 09:03 | 20.86875 | 122.38740 | 40893 ft | 519 kts | 49° |
| 2026-04-18 09:03 | 20.91610 | 122.44562 | 40893 ft | 519 kts | 49° |
| 2026-04-18 09:04 | 20.96347 | 122.50392 | 40891 ft | 519 kts | 49° |
| 2026-04-18 09:04 | 21.01481 | 122.55804 | 40893 ft | 519 kts | 36° |
| 2026-04-18 09:05 | 21.07380 | 122.60240 | 40898 ft | 519 kts | 33° |
| 2026-04-18 09:05 | 21.13425 | 122.64462 | 40891 ft | 519 kts | 32° |
| 2026-04-18 09:06 | 21.19458 | 122.68618 | 40892 ft | 519 kts | 32° |
| 2026-04-18 09:06 | 21.25518 | 122.72816 | 40891 ft | 519 kts | 32° |
| 2026-04-18 09:07 | 21.31585 | 122.77042 | 40892 ft | 520 kts | 32° |
| 2026-04-18 09:07 | 21.37641 | 122.81271 | 40893 ft | 520 kts | 32° |
| 2026-04-18 09:08 | 21.43706 | 122.85511 | 40887 ft | 520 kts | 32° |
| 2026-04-18 09:08 | 21.49777 | 122.89759 | 40888 ft | 521 kts | 32° |
| 2026-04-18 09:09 | 21.55841 | 122.94005 | 40889 ft | 521 kts | 32° |
| 2026-04-18 09:09 | 21.61914 | 122.98262 | 40888 ft | 521 kts | 32° |
| 2026-04-18 09:10 | 21.67990 | 123.02525 | 40888 ft | 521 kts | 32° |
| 2026-04-18 09:10 | 21.74065 | 123.06792 | 40888 ft | 522 kts | 32° |
| 2026-04-18 09:11 | 21.80140 | 123.11063 | 40888 ft | 522 kts | 32° |
| 2026-04-18 09:11 | 21.86224 | 123.15345 | 40883 ft | 523 kts | 32° |
| 2026-04-18 09:12 | 21.92317 | 123.19638 | 40885 ft | 523 kts | 32° |
| 2026-04-18 09:12 | 21.98405 | 123.23933 | 40887 ft | 524 kts | 32° |
| 2026-04-18 09:13 | 22.04500 | 123.28236 | 40890 ft | 524 kts | 32° |
| 2026-04-18 09:13 | 22.10598 | 123.32546 | 40888 ft | 524 kts | 32° |
| 2026-04-18 09:14 | 22.16663 | 123.36836 | 40878 ft | 524 kts | 32° |
| 2026-04-18 09:14 | 22.22762 | 123.41156 | 40879 ft | 525 kts | 32° |
| 2026-04-18 09:15 | 22.28862 | 123.45481 | 40881 ft | 525 kts | 32° |
| 2026-04-18 09:15 | 22.34972 | 123.49818 | 40887 ft | 525 kts | 32° |
| 2026-04-18 09:16 | 22.41073 | 123.54153 | 40884 ft | 525 kts | 32° |
| 2026-04-18 09:16 | 22.47182 | 123.58498 | 40892 ft | 526 kts | 32° |
| 2026-04-18 09:17 | 22.53292 | 123.62848 | 40888 ft | 526 kts | 32° |
| 2026-04-18 09:17 | 22.59398 | 123.67201 | 40889 ft | 526 kts | 32° |
| 2026-04-18 09:18 | 22.65518 | 123.71568 | 40889 ft | 527 kts | 32° |
| 2026-04-18 09:18 | 22.71640 | 123.75941 | 40888 ft | 527 kts | 32° |
| 2026-04-18 09:19 | 22.77761 | 123.80319 | 40892 ft | 528 kts | 32° |
| 2026-04-18 09:19 | 22.83888 | 123.84713 | 40890 ft | 528 kts | 32° |
| 2026-04-18 09:20 | 22.90022 | 123.89107 | 40891 ft | 529 kts | 31° |
| 2026-04-18 09:20 | 22.96162 | 123.93508 | 40892 ft | 529 kts | 31° |
| 2026-04-18 09:21 | 23.02266 | 123.97899 | 40890 ft | 530 kts | 32° |
| 2026-04-18 09:21 | 23.08372 | 124.02388 | 40892 ft | 531 kts | 32° |
| 2026-04-18 09:22 | 23.14480 | 124.06916 | 40893 ft | 531 kts | 32° |
| 2026-04-18 09:22 | 23.20594 | 124.11444 | 40894 ft | 532 kts | 32° |
| 2026-04-18 09:23 | 23.26713 | 124.15970 | 40898 ft | 532 kts | 32° |
| 2026-04-18 09:23 | 23.32841 | 124.20506 | 40899 ft | 533 kts | 32° |
| 2026-04-18 09:24 | 23.38974 | 124.25058 | 40896 ft | 534 kts | 32° |
| 2026-04-18 09:24 | 23.45116 | 124.29618 | 40898 ft | 534 kts | 32° |
| 2026-04-18 09:25 | 23.51256 | 124.34179 | 40899 ft | 535 kts | 32° |
| 2026-04-18 09:25 | 23.57408 | 124.38755 | 40901 ft | 535 kts | 32° |
| 2026-04-18 09:26 | 23.63556 | 124.43335 | 40907 ft | 536 kts | 32° |
| 2026-04-18 09:26 | 23.69709 | 124.47926 | 40902 ft | 536 kts | 32° |
| 2026-04-18 09:27 | 23.75865 | 124.52524 | 40905 ft | 536 kts | 32° |
| 2026-04-18 09:27 | 23.82020 | 124.57126 | 40908 ft | 537 kts | 32° |
| 2026-04-18 09:28 | 23.88181 | 124.61738 | 40904 ft | 537 kts | 32° |
| 2026-04-18 09:28 | 23.94342 | 124.66356 | 40907 ft | 537 kts | 32° |
| 2026-04-18 09:29 | 24.00518 | 124.70990 | 40909 ft | 538 kts | 32° |
| 2026-04-18 09:29 | 24.06681 | 124.75620 | 40909 ft | 538 kts | 32° |
| 2026-04-18 09:30 | 24.12855 | 124.80264 | 40913 ft | 538 kts | 32° |
| 2026-04-18 09:30 | 24.19029 | 124.84912 | 40905 ft | 539 kts | 32° |
| 2026-04-18 09:31 | 24.25208 | 124.89571 | 40907 ft | 539 kts | 32° |
| 2026-04-18 09:31 | 24.31381 | 124.94231 | 40912 ft | 539 kts | 32° |
| 2026-04-18 09:32 | 24.37516 | 124.98867 | 40912 ft | 539 kts | 32° |
| 2026-04-18 09:32 | 24.43688 | 125.03538 | 40913 ft | 539 kts | 32° |
| 2026-04-18 09:33 | 24.49858 | 125.08212 | 40906 ft | 539 kts | 32° |
| 2026-04-18 09:33 | 24.56046 | 125.12906 | 40903 ft | 540 kts | 32° |
| 2026-04-18 09:34 | 24.62224 | 125.17598 | 40896 ft | 541 kts | 31° |
| 2026-04-18 09:34 | 24.68414 | 125.22305 | 40889 ft | 541 kts | 31° |
| 2026-04-18 09:35 | 24.74612 | 125.27023 | 40885 ft | 542 kts | 31° |
| 2026-04-18 09:35 | 24.80550 | 125.32050 | 40876 ft | 533 kts | 42° |
| 2026-04-18 09:36 | 24.82962 | 125.35123 | 40882 ft | 530 kts | 54° |
| 2026-04-18 09:36 | 24.84771 | 125.38643 | 40887 ft | 528 kts | 68° |
| 2026-04-18 09:36 | 24.85853 | 125.42486 | 40892 ft | 525 kts | 81° |
| 2026-04-18 09:36 | 24.86170 | 125.46460 | 40896 ft | 520 kts | 95° |
| 2026-04-18 09:37 | 24.85756 | 125.50379 | 40900 ft | 512 kts | 107° |
| 2026-04-18 09:37 | 24.84681 | 125.54077 | 40903 ft | 504 kts | 119° |
| 2026-04-18 09:37 | 24.83030 | 125.57431 | 40905 ft | 494 kts | 130° |
| 2026-04-18 09:37 | 24.80896 | 125.60338 | 40908 ft | 483 kts | 141° |
| 2026-04-18 09:38 | 24.78379 | 125.62720 | 40912 ft | 472 kts | 152° |
| 2026-04-18 09:38 | 24.75591 | 125.64530 | 40909 ft | 461 kts | 162° |
| 2026-04-18 09:38 | 24.69611 | 125.66368 | 40915 ft | 442 kts | 181° |
| 2026-04-18 09:39 | 24.63613 | 125.65948 | 40915 ft | 426 kts | 199° |
| 2026-04-18 09:39 | 24.58213 | 125.63546 | 40922 ft | 416 kts | 213° |
| 2026-04-18 09:40 | 24.53301 | 125.60195 | 40905 ft | 415 kts | 216° |
| 2026-04-18 09:40 | 24.48485 | 125.56694 | 40911 ft | 415 kts | 217° |
| 2026-04-18 09:41 | 24.43981 | 125.52778 | 40918 ft | 412 kts | 227° |
| 2026-04-18 09:41 | 24.40584 | 125.47780 | 40916 ft | 409 kts | 242° |
| 2026-04-18 09:42 | 24.38749 | 125.41885 | 40919 ft | 412 kts | 258° |
| 2026-04-18 09:42 | 24.38667 | 125.35591 | 40921 ft | 418 kts | 274° |
| 2026-04-18 09:43 | 24.40423 | 125.29439 | 40918 ft | 430 kts | 291° |
| 2026-04-18 09:43 | 24.43969 | 125.24066 | 40913 ft | 445 kts | 309° |
| 2026-04-18 09:44 | 24.49135 | 125.20134 | 40904 ft | 464 kts | 328° |
| 2026-04-18 09:44 | 24.55492 | 125.18315 | 40905 ft | 485 kts | 349° |
| 2026-04-18 09:45 | 24.58891 | 125.18375 | 40896 ft | 495 kts | 0° |
| 2026-04-18 09:45 | 24.62290 | 125.19143 | 40900 ft | 505 kts | 12° |
| 2026-04-18 09:45 | 24.65563 | 125.20631 | 40896 ft | 513 kts | 23° |
| 2026-04-18 09:45 | 24.68675 | 125.22572 | 40888 ft | 516 kts | 27° |
| 2026-04-18 09:46 | 24.74719 | 125.26880 | 40887 ft | 519 kts | 30° |
| 2026-04-18 09:46 | 24.80440 | 125.31755 | 40884 ft | 525 kts | 43° |
| 2026-04-18 09:47 | 24.82794 | 125.34836 | 40884 ft | 528 kts | 54° |
| 2026-04-18 09:47 | 24.84599 | 125.38354 | 40884 ft | 528 kts | 67° |
| 2026-04-18 09:47 | 24.85728 | 125.42184 | 40891 ft | 526 kts | 80° |
| 2026-04-18 09:47 | 24.86123 | 125.46163 | 40894 ft | 521 kts | 93° |
| 2026-04-18 09:48 | 24.85799 | 125.50048 | 40900 ft | 514 kts | 106° |
| 2026-04-18 09:48 | 24.84798 | 125.53780 | 40903 ft | 505 kts | 118° |
| 2026-04-18 09:48 | 24.83198 | 125.57179 | 40907 ft | 495 kts | 129° |
| 2026-04-18 09:48 | 24.81106 | 125.60120 | 40908 ft | 484 kts | 141° |
| 2026-04-18 09:49 | 24.78617 | 125.62544 | 40911 ft | 473 kts | 151° |
| 2026-04-18 09:49 | 24.75839 | 125.64408 | 40914 ft | 462 kts | 161° |
| 2026-04-18 09:49 | 24.69828 | 125.66347 | 40917 ft | 442 kts | 181° |
| 2026-04-18 09:50 | 24.63821 | 125.66008 | 40926 ft | 427 kts | 198° |
| 2026-04-18 09:50 | 24.59221 | 125.64157 | 40913 ft | 417 kts | 212° |
| 2026-04-18 09:51 | 24.54265 | 125.60886 | 40924 ft | 415 kts | 216° |
| 2026-04-18 09:51 | 24.49442 | 125.57393 | 40916 ft | 415 kts | 217° |
| 2026-04-18 09:52 | 24.44808 | 125.53640 | 40906 ft | 413 kts | 225° |
| 2026-04-18 09:52 | 24.41142 | 125.48867 | 40914 ft | 409 kts | 239° |
| 2026-04-18 09:53 | 24.38972 | 125.43111 | 40911 ft | 411 kts | 255° |
| 2026-04-18 09:53 | 24.38534 | 125.36855 | 40909 ft | 417 kts | 271° |
| 2026-04-18 09:54 | 24.39899 | 125.30677 | 40919 ft | 427 kts | 287° |
| 2026-04-18 09:54 | 24.43092 | 125.25085 | 40920 ft | 441 kts | 305° |
| 2026-04-18 09:55 | 24.47950 | 125.20794 | 40915 ft | 460 kts | 324° |
| 2026-04-18 09:55 | 24.54100 | 125.18487 | 40908 ft | 480 kts | 345° |
| 2026-04-18 09:56 | 24.57471 | 125.18265 | 40913 ft | 491 kts | 355° |
| 2026-04-18 09:56 | 24.60893 | 125.18738 | 40896 ft | 501 kts | 7° |
| 2026-04-18 09:56 | 24.64230 | 125.19929 | 40893 ft | 510 kts | 19° |
| 2026-04-18 09:56 | 24.67391 | 125.21738 | 40889 ft | 515 kts | 25° |
| 2026-04-18 09:57 | 24.73478 | 125.25968 | 40885 ft | 519 kts | 29° |
| 2026-04-18 09:57 | 24.79341 | 125.30615 | 40883 ft | 523 kts | 39° |
| 2026-04-18 09:58 | 24.83930 | 125.36855 | 40886 ft | 528 kts | 62° |
| 2026-04-18 09:58 | 24.85350 | 125.40576 | 40890 ft | 527 kts | 75° |
| 2026-04-18 09:58 | 24.86050 | 125.44512 | 40892 ft | 524 kts | 88° |
| 2026-04-18 09:59 | 24.86012 | 125.48499 | 40899 ft | 517 kts | 101° |
| 2026-04-18 09:59 | 24.85272 | 125.52331 | 40902 ft | 509 kts | 113° |
| 2026-04-18 09:59 | 24.83904 | 125.55874 | 40906 ft | 499 kts | 125° |
| 2026-04-18 10:00 | 24.79644 | 125.61660 | 40912 ft | 478 kts | 147° |
| 2026-04-18 10:00 | 24.76970 | 125.63744 | 40915 ft | 467 kts | 158° |
| 2026-04-18 10:00 | 24.74066 | 125.65248 | 40918 ft | 456 kts | 167° |
| 2026-04-18 10:01 | 24.67972 | 125.66615 | 40920 ft | 446 kts | 181° |
| 2026-04-18 10:01 | 24.61799 | 125.66339 | 40930 ft | 443 kts | 197° |
| 2026-04-18 10:02 | 24.56092 | 125.63936 | 40923 ft | 439 kts | 215° |
| 2026-04-18 10:02 | 24.51542 | 125.59617 | 40918 ft | 432 kts | 232° |
| 2026-04-18 10:03 | 24.48561 | 125.53935 | 40925 ft | 431 kts | 249° |
| 2026-04-18 10:03 | 24.47399 | 125.47517 | 40921 ft | 436 kts | 265° |
| 2026-04-18 10:03 | 24.47557 | 125.44185 | 40916 ft | 441 kts | 276° |
| 2026-04-18 10:04 | 24.48483 | 125.40949 | 40918 ft | 450 kts | 291° |
| 2026-04-18 10:04 | 24.50227 | 125.38062 | 40916 ft | 463 kts | 306° |
| 2026-04-18 10:04 | 24.52696 | 125.35723 | 40908 ft | 477 kts | 320° |
| 2026-04-18 10:04 | 24.55726 | 125.34128 | 40908 ft | 492 kts | 335° |
| 2026-04-18 10:05 | 24.59120 | 125.33392 | 40905 ft | 505 kts | 348° |
| 2026-04-18 10:05 | 24.66160 | 125.32847 | 40888 ft | 505 kts | 347° |
| 2026-04-18 10:06 | 24.73266 | 125.32862 | 40883 ft | 520 kts | 2° |
| 2026-04-18 10:06 | 24.76812 | 125.33830 | 40885 ft | 531 kts | 15° |
| 2026-04-18 10:06 | 24.80122 | 125.35679 | 40883 ft | 540 kts | 30° |
| 2026-04-18 10:06 | 24.83000 | 125.38365 | 40886 ft | 546 kts | 45° |
| 2026-04-18 10:07 | 24.85374 | 125.41634 | 40892 ft | 549 kts | 54° |
| 2026-04-18 10:07 | 24.89351 | 125.48822 | 40902 ft | 550 kts | 59° |
| 2026-04-18 10:08 | 24.93154 | 125.56147 | 40924 ft | 551 kts | 58° |
| 2026-04-18 10:08 | 24.97089 | 125.63386 | 40927 ft | 550 kts | 57° |
| 2026-04-18 10:09 | 25.01103 | 125.70544 | 40597 ft | 546 kts | 57° |
| 2026-04-18 10:09 | 25.03116 | 125.74106 | 39820 ft | 550 kts | 57° |
| 2026-04-18 10:09 | 25.05145 | 125.77698 | 39015 ft | 554 kts | 57° |
| 2026-04-18 10:09 | 25.07189 | 125.81321 | 38212 ft | 557 kts | 57° |
| 2026-04-18 10:10 | 25.09238 | 125.84964 | 37322 ft | 560 kts | 57° |
| 2026-04-18 10:10 | 25.11291 | 125.88622 | 36484 ft | 562 kts | 57° |
| 2026-04-18 10:10 | 25.13344 | 125.92287 | 35677 ft | 563 kts | 57° |
| 2026-04-18 10:10 | 25.15402 | 125.95970 | 34866 ft | 564 kts | 57° |
| 2026-04-18 10:11 | 25.17431 | 125.99618 | 34063 ft | 566 kts | 58° |
| 2026-04-18 10:11 | 25.19487 | 126.03324 | 33146 ft | 567 kts | 57° |
| 2026-04-18 10:11 | 25.21548 | 126.07036 | 32207 ft | 567 kts | 57° |
| 2026-04-18 10:11 | 25.23616 | 126.10754 | 31269 ft | 568 kts | 57° |
| 2026-04-18 10:12 | 25.25688 | 126.14472 | 30325 ft | 569 kts | 57° |
| 2026-04-18 10:12 | 25.27762 | 126.18194 | 29337 ft | 568 kts | 57° |
| 2026-04-18 10:12 | 25.29827 | 126.21895 | 28429 ft | 565 kts | 57° |
| 2026-04-18 10:12 | 25.31878 | 126.25575 | 27636 ft | 559 kts | 57° |
| 2026-04-18 10:13 | 25.33905 | 126.29217 | 26911 ft | 552 kts | 57° |
| 2026-04-18 10:13 | 25.35903 | 126.32810 | 26208 ft | 545 kts | 57° |
| 2026-04-18 10:13 | 25.37878 | 126.36364 | 25532 ft | 539 kts | 57° |
| 2026-04-18 10:13 | 25.39825 | 126.39870 | 24884 ft | 532 kts | 57° |
| 2026-04-18 10:14 | 25.41749 | 126.43339 | 24235 ft | 525 kts | 57° |
| 2026-04-18 10:14 | 25.43645 | 126.46759 | 23583 ft | 519 kts | 57° |
| 2026-04-18 10:14 | 25.45522 | 126.50147 | 22843 ft | 513 kts | 57° |
| 2026-04-18 10:14 | 25.47371 | 126.53488 | 22073 ft | 506 kts | 57° |
| 2026-04-18 10:15 | 25.49195 | 126.56788 | 21352 ft | 500 kts | 57° |
| 2026-04-18 10:15 | 25.50992 | 126.60052 | 20637 ft | 493 kts | 57° |
| 2026-04-18 10:15 | 25.52764 | 126.63279 | 19940 ft | 487 kts | 58° |
| 2026-04-18 10:15 | 25.54508 | 126.66459 | 19251 ft | 481 kts | 58° |
| 2026-04-18 10:16 | 25.56232 | 126.69604 | 18577 ft | 474 kts | 58° |
| 2026-04-18 10:16 | 25.57933 | 126.72708 | 17850 ft | 469 kts | 58° |
| 2026-04-18 10:16 | 25.59614 | 126.75777 | 17078 ft | 463 kts | 58° |
| 2026-04-18 10:16 | 25.61262 | 126.78789 | 16208 ft | 445 kts | 58° |
| 2026-04-18 10:17 | 25.62831 | 126.81659 | 14800 ft | 435 kts | 57° |
| 2026-04-18 10:17 | 25.64423 | 126.84568 | 13781 ft | 442 kts | 57° |
| 2026-04-18 10:17 | 25.65963 | 126.87390 | 13082 ft | 422 kts | 57° |
| 2026-04-18 10:17 | 25.67467 | 126.90146 | 12486 ft | 414 kts | 57° |
| 2026-04-18 10:18 | 25.68942 | 126.92850 | 11886 ft | 406 kts | 57° |
| 2026-04-18 10:18 | 25.70385 | 126.95492 | 11336 ft | 389 kts | 57° |
| 2026-04-18 10:18 | 25.71720 | 126.97947 | 11071 ft | 353 kts | 57° |
| 2026-04-18 10:18 | 25.72933 | 127.00180 | 10918 ft | 329 kts | 56° |
| 2026-04-18 10:19 | 25.74103 | 127.02330 | 10672 ft | 322 kts | 57° |
| 2026-04-18 10:19 | 25.75245 | 127.04444 | 10434 ft | 317 kts | 57° |
| 2026-04-18 10:19 | 25.76378 | 127.06540 | 10290 ft | 316 kts | 57° |
| 2026-04-18 10:19 | 25.77509 | 127.08627 | 10191 ft | 316 kts | 57° |
| 2026-04-18 10:20 | 25.78641 | 127.10713 | 10108 ft | 315 kts | 57° |
| 2026-04-18 10:20 | 25.79767 | 127.12786 | 10008 ft | 311 kts | 56° |
| 2026-04-18 10:20 | 25.80882 | 127.14841 | 9655 ft | 311 kts | 56° |
| 2026-04-18 10:20 | 25.81999 | 127.16895 | 9334 ft | 311 kts | 57° |
| 2026-04-18 10:21 | 25.83113 | 127.18946 | 9006 ft | 310 kts | 57° |
| 2026-04-18 10:21 | 25.84221 | 127.20988 | 8702 ft | 307 kts | 57° |
| 2026-04-18 10:21 | 25.85322 | 127.23018 | 8389 ft | 306 kts | 57° |
| 2026-04-18 10:21 | 25.86414 | 127.25034 | 8078 ft | 304 kts | 57° |
| 2026-04-18 10:22 | 25.87499 | 127.27035 | 7779 ft | 301 kts | 57° |
| 2026-04-18 10:22 | 25.88575 | 127.29023 | 7467 ft | 299 kts | 57° |
| 2026-04-18 10:22 | 25.89569 | 127.31047 | 7151 ft | 299 kts | 65° |
| 2026-04-18 10:22 | 25.90227 | 127.33234 | 6840 ft | 298 kts | 72° |
| 2026-04-18 10:23 | 25.90763 | 127.35454 | 6537 ft | 296 kts | 74° |
| 2026-04-18 10:23 | 25.91275 | 127.37662 | 6211 ft | 294 kts | 74° |
| 2026-04-18 10:23 | 25.91782 | 127.39853 | 5894 ft | 292 kts | 74° |
| 2026-04-18 10:23 | 25.92282 | 127.42007 | 5584 ft | 291 kts | 74° |
| 2026-04-18 10:24 | 25.92792 | 127.44200 | 5264 ft | 289 kts | 74° |
| 2026-04-18 10:24 | 25.93295 | 127.46360 | 4954 ft | 287 kts | 74° |
| 2026-04-18 10:24 | 25.93793 | 127.48497 | 4652 ft | 285 kts | 74° |
| 2026-04-18 10:24 | 25.94283 | 127.50598 | 4338 ft | 283 kts | 74° |
| 2026-04-18 10:25 | 25.94773 | 127.52703 | 4024 ft | 281 kts | 74° |
| 2026-04-18 10:25 | 25.95260 | 127.54801 | 3730 ft | 280 kts | 74° |
| 2026-04-18 10:25 | 25.95749 | 127.56893 | 3414 ft | 279 kts | 74° |
| 2026-04-18 10:25 | 25.96472 | 127.58870 | 3115 ft | 276 kts | 55° |
| 2026-04-18 10:26 | 25.97821 | 127.60348 | 2819 ft | 272 kts | 35° |
| 2026-04-18 10:26 | 25.99355 | 127.61519 | 2631 ft | 261 kts | 32° |
| 2026-04-18 10:26 | 26.00840 | 127.62591 | 2491 ft | 248 kts | 30° |
| 2026-04-18 10:26 | 26.02260 | 127.63595 | 2358 ft | 233 kts | 31° |
| 2026-04-18 10:27 | 26.03575 | 127.64506 | 2204 ft | 213 kts | 28° |
| 2026-04-18 10:27 | 26.04842 | 127.65110 | 2162 ft | 183 kts | 15° |
| 2026-04-18 10:27 | 26.05997 | 127.65332 | 2106 ft | 160 kts | 2° |
| 2026-04-18 10:27 | 26.07078 | 127.65326 | 1989 ft | 150 kts | 355° |
| 2026-04-18 10:28 | 26.08078 | 127.65264 | 1821 ft | 138 kts | 355° |
| 2026-04-18 10:28 | 26.09018 | 127.65221 | 1710 ft | 134 kts | 356° |
| 2026-04-18 10:28 | 26.09950 | 127.65164 | 1596 ft | 135 kts | 356° |
| 2026-04-18 10:28 | 26.10890 | 127.65111 | 1416 ft | 135 kts | 357° |
| 2026-04-18 10:29 | 26.11824 | 127.65060 | 1243 ft | 134 kts | 357° |
| 2026-04-18 10:29 | 26.12754 | 127.65006 | 1062 ft | 134 kts | 357° |
| 2026-04-18 10:29 | 26.13681 | 127.64952 | 904 ft | 134 kts | 357° |
| 2026-04-18 10:29 | 26.14601 | 127.64899 | 740 ft | 131 kts | 357° |
| 2026-04-18 10:30 | 26.15491 | 127.64808 | 578 ft | 127 kts | 353° |
| 2026-04-18 10:30 | 26.16366 | 127.64726 | 391 ft | 127 kts | 0° |
| 2026-04-18 10:30 | 26.17245 | 127.64688 | 227 ft | 124 kts | 1° |
| 2026-04-18 10:30 | 26.18127 | 127.64652 | 84 ft | 129 kts | 359° |
| 2026-04-18 10:31 | 26.18988 | 127.64613 | 30 ft | 128 kts | 357° |
| 2026-04-18 10:31 | 26.19779 | 127.64578 | 21 ft | 86 kts | 358° |
| 2026-04-18 10:31 | 26.20206 | 127.64588 | 28 ft | 47 kts | 14° |
| 2026-04-18 10:31 | 26.20420 | 127.64693 | 25 ft | 26 kts | 29° |
| 2026-04-18 10:32 | 26.20562 | 127.64746 | 25 ft | 17 kts | 359° |
| 2026-04-18 10:32 | 26.20656 | 127.64744 | 23 ft | 15 kts | 359° |
| 2026-04-18 10:32 | 26.20764 | 127.64739 | 25 ft | 17 kts | 357° |
| 2026-04-18 10:32 | 26.20872 | 127.64744 | 25 ft | 9 kts | 24° |
| 2026-04-18 10:33 | 26.20896 | 127.64769 | 27 ft | 0 kts | 64° |
| 2026-04-18 10:33 | 26.20897 | 127.64772 | 27 ft | 2 kts | 72° |
| 2026-04-18 10:34 | 26.20896 | 127.64783 | 30 ft | 2 kts | 97° |
| 2026-04-18 10:34 | 26.20864 | 127.64816 | 32 ft | 11 kts | 149° |
| 2026-04-18 10:34 | 26.20834 | 127.64841 | 27 ft | 0 kts | 135° |
| 2026-04-18 10:35 | 26.20828 | 127.64848 | 27 ft | 0 kts | 136° |